Terminal Aerodrome Forecast
Issued by NWS

Home | Current Version | Previous Version | Text Only | Print | Product List | Glossary On
Versions: 1 2 3 4 5 6 7 8 9 10 11 12 13 14 15 16 17 18 19 20 21 22 23 24 25 26
000
FTUS44 KOUN 080520
TAFCSM
TAF
KCSM 080520Z 0806/0906 01015KT P6SM SCT015 BKN150 BKN250
      TEMPO 0806/0809 BKN015
     FM081400 36014KT P6SM SCT250
     FM090000 04006KT P6SM SCT100=

USA.gov is the U.S. government's official web portal to all federal, state and local government web resources and services.